createdAt,value
2019-03-19T00:00:40.912Z,100362.59
2019-03-19T00:03:11.581Z,100354.83
2019-03-19T00:05:42.238Z,100360.95
2019-03-19T00:08:12.725Z,100352.23
2019-03-19T00:10:43.199Z,100356.44
2019-03-19T00:13:15.184Z,100358.64
2019-03-19T00:15:53.832Z,100355.22
2019-03-19T00:18:25.914Z,100354.59
2019-03-19T00:20:56.395Z,100352.95
2019-03-19T00:23:26.916Z,100350.60
2019-03-19T00:25:57.399Z,100344.44
2019-03-19T00:28:27.935Z,100344.05
2019-03-19T00:30:58.370Z,100342.91
2019-03-19T00:33:28.827Z,100349.55
2019-03-19T00:35:59.329Z,100343.91
2019-03-19T00:38:29.792Z,100341.89
2019-03-19T00:41:00.683Z,100346.48
2019-03-19T00:43:31.315Z,100346.17
2019-03-19T00:46:01.889Z,100345.42
2019-03-19T00:48:32.477Z,100349.59
2019-03-19T00:51:03.048Z,100345.80
2019-03-19T00:53:33.566Z,100351.70
2019-03-19T00:56:04.166Z,100354.27
2019-03-19T00:58:38.623Z,100347.58
2019-03-19T01:01:09.153Z,100358.83
2019-03-19T01:03:40.574Z,100366.54
2019-03-19T01:06:11.067Z,100364.07
2019-03-19T01:08:41.538Z,100365.16
2019-03-19T01:11:11.999Z,100365.81
2019-03-19T01:13:42.453Z,100366.13
2019-03-19T01:16:14.889Z,100370.66
2019-03-19T01:18:45.398Z,100374.76
2019-03-19T01:21:15.843Z,100374.28
2019-03-19T01:23:46.317Z,100378.08
2019-03-19T01:26:16.782Z,100380.65
2019-03-19T01:28:47.305Z,100381.27
2019-03-19T01:31:17.779Z,100388.02
2019-03-19T01:33:48.258Z,100386.13
2019-03-19T01:36:18.709Z,100378.36
2019-03-19T01:38:49.174Z,100382.82
2019-03-19T01:41:19.613Z,100382.92
2019-03-19T01:43:50.071Z,100383.63
2019-03-19T01:46:20.570Z,100380.09
2019-03-19T01:48:55.093Z,100381.23
2019-03-19T01:51:25.799Z,100377.95
2019-03-19T01:53:56.291Z,100380.02
2019-03-19T01:56:26.816Z,100381.38
2019-03-19T01:58:57.282Z,100385.14
2019-03-19T02:01:27.909Z,100380.89
2019-03-19T02:03:58.360Z,100386.10
2019-03-19T02:06:28.812Z,100390.01
2019-03-19T02:08:59.342Z,100389.05
2019-03-19T02:11:29.815Z,100393.66
2019-03-19T02:14:00.346Z,100391.57
2019-03-19T02:16:30.837Z,100391.48
2019-03-19T02:19:01.410Z,100388.05
2019-03-19T02:21:31.829Z,100389.45
2019-03-19T02:24:02.316Z,100388.05
2019-03-19T02:26:32.844Z,100381.31
2019-03-19T02:29:03.413Z,100389.45
2019-03-19T02:34:33.093Z,100381.41
2019-03-19T02:37:03.618Z,100378.83
2019-03-19T02:39:34.233Z,100385.60
2019-03-19T02:42:04.780Z,100379.34
2019-03-19T02:44:35.325Z,100384.28
2019-03-19T02:47:05.766Z,100385.60
2019-03-19T02:49:36.358Z,100386.21
2019-03-19T02:52:06.956Z,100382.87
2019-03-19T02:54:53.394Z,100389.41
2019-03-19T02:57:23.976Z,100397.05
2019-03-19T02:59:55.988Z,100392.47
2019-03-19T03:02:26.569Z,100384.69
2019-03-19T03:04:57.232Z,100388.66
2019-03-19T03:07:27.653Z,100388.91
2019-03-19T03:09:58.096Z,100394.14
2019-03-19T03:12:28.584Z,100397.72
2019-03-19T03:14:59.138Z,100399.98
2019-03-19T03:17:29.690Z,100395.46
2019-03-19T03:20:00.125Z,100397.77
2019-03-19T03:22:30.582Z,100402.77
2019-03-19T03:25:01.056Z,100405.84
2019-03-19T03:27:34.094Z,100408.91
2019-03-19T03:30:08.590Z,100404.23
2019-03-19T03:32:40.682Z,100412.66
2019-03-19T03:35:12.697Z,100417.02
2019-03-19T03:37:43.284Z,100417.15
2019-03-19T03:43:06.924Z,100421.87
2019-03-19T03:45:37.522Z,100423.58
2019-03-19T03:48:09.554Z,100416.27
2019-03-19T03:50:40.185Z,100420.89
2019-03-19T03:53:16.883Z,100422.00
2019-03-19T03:55:47.521Z,100419.58
2019-03-19T03:58:18.029Z,100425.20
2019-03-19T04:00:51.297Z,100423.63
2019-03-19T04:06:32.507Z,100431.16
2019-03-19T04:09:16.263Z,100438.85
2019-03-19T04:11:46.832Z,100439.14
2019-03-19T04:14:17.322Z,100436.61
2019-03-19T04:16:47.817Z,100440.37
2019-03-19T04:19:20.386Z,100442.02
2019-03-19T04:24:44.677Z,100438.20
2019-03-19T04:27:16.650Z,100449.63
2019-03-19T04:29:47.645Z,100449.96
2019-03-19T04:32:34.089Z,100454.06
2019-03-19T04:35:10.246Z,100459.55
2019-03-19T04:38:01.192Z,100462.01
2019-03-19T04:40:31.387Z,100458.63
2019-03-19T04:43:03.558Z,100463.75
2019-03-19T04:45:37.199Z,100470.52
2019-03-19T04:48:07.771Z,100473.55
2019-03-19T04:50:38.331Z,100481.17
2019-03-19T04:53:10.341Z,100480.91
2019-03-19T04:55:40.795Z,100483.25
2019-03-19T04:58:13.026Z,100483.92
2019-03-19T05:00:45.122Z,100486.31
2019-03-19T05:03:17.146Z,100481.13
2019-03-19T05:05:47.566Z,100486.08
2019-03-19T05:08:23.277Z,100485.71
2019-03-19T05:10:55.307Z,100487.73
2019-03-19T05:13:25.782Z,100488.45
2019-03-19T05:16:00.521Z,100492.64
2019-03-19T05:21:23.500Z,100488.06
2019-03-19T05:23:53.952Z,100492.14
2019-03-19T05:26:26.073Z,100500.67
2019-03-19T05:28:58.164Z,100504.26
2019-03-19T05:31:28.732Z,100502.03
2019-03-19T05:34:03.733Z,100500.85
2019-03-19T05:36:34.302Z,100502.64
2019-03-19T05:39:09.847Z,100513.68
2019-03-19T05:41:42.610Z,100508.20
2019-03-19T05:44:16.481Z,100507.19
2019-03-19T05:46:51.299Z,100508.86
2019-03-19T05:49:29.151Z,100505.67
2019-03-19T05:51:59.632Z,100513.63
2019-03-19T05:54:32.756Z,100517.00
2019-03-19T05:57:06.176Z,100513.54
2019-03-19T05:59:41.074Z,100513.77
2019-03-19T06:02:11.595Z,100511.61
2019-03-19T06:04:43.751Z,100517.77
2019-03-19T06:07:15.906Z,100519.80
2019-03-19T06:09:49.047Z,100509.68
2019-03-19T06:12:21.315Z,100517.85
2019-03-19T06:14:52.006Z,100520.02
2019-03-19T06:17:23.662Z,100524.29
2019-03-19T06:19:56.565Z,100522.78
2019-03-19T06:22:28.694Z,100523.56
2019-03-19T06:25:04.212Z,100527.52
2019-03-19T06:27:34.834Z,100527.61
2019-03-19T06:33:12.009Z,100528.42
2019-03-19T06:35:44.031Z,100524.72
2019-03-19T06:38:17.391Z,100523.47
2019-03-19T06:40:48.962Z,100530.81
2019-03-19T06:43:23.005Z,100525.83
2019-03-19T06:46:08.618Z,100528.86
2019-03-19T06:48:41.930Z,100526.84
2019-03-19T06:51:20.551Z,100531.77
2019-03-19T06:53:51.284Z,100523.04
2019-03-19T06:59:15.832Z,100531.83
2019-03-19T07:01:50.460Z,100521.02
2019-03-19T07:04:20.976Z,100529.98
2019-03-19T07:06:52.822Z,100527.79
2019-03-19T07:09:28.917Z,100532.26
2019-03-19T07:12:01.679Z,100527.49
2019-03-19T07:14:34.055Z,100526.23
2019-03-19T07:17:05.103Z,100533.14
2019-03-19T07:19:53.378Z,100531.27
2019-03-19T07:22:30.806Z,100524.14
2019-03-19T07:25:03.171Z,100537.38
2019-03-19T07:27:35.885Z,100531.78
2019-03-19T07:30:23.353Z,100531.33
2019-03-19T07:32:56.261Z,100531.69
2019-03-19T07:35:26.821Z,100525.73
2019-03-19T07:37:58.967Z,100527.85
2019-03-19T07:40:34.513Z,100533.59
2019-03-19T07:43:05.095Z,100533.27
2019-03-19T07:45:35.624Z,100541.10
2019-03-19T07:48:06.128Z,100537.31
2019-03-19T07:50:37.766Z,100537.37
2019-03-19T07:53:08.377Z,100535.70
2019-03-19T07:55:40.356Z,100536.96
2019-03-19T07:58:15.322Z,100534.88
2019-03-19T08:00:45.951Z,100531.70
2019-03-19T08:03:17.989Z,100525.81
2019-03-19T08:05:57.508Z,100526.16
2019-03-19T08:08:28.157Z,100519.54
2019-03-19T08:10:58.983Z,100515.52
2019-03-19T08:13:30.440Z,100525.59
2019-03-19T08:16:02.727Z,100518.95
2019-03-19T08:18:36.249Z,100517.93
2019-03-19T08:21:06.944Z,100514.14
2019-03-19T08:23:40.081Z,100504.61
2019-03-19T08:26:13.790Z,100509.52
2019-03-19T08:28:55.032Z,100516.33
2019-03-19T08:31:18.914Z,100511.70
2019-03-19T08:33:49.448Z,100513.67
2019-03-19T08:36:19.834Z,100511.16
2019-03-19T08:38:50.292Z,100514.11
2019-03-19T08:41:37.104Z,100508.48
2019-03-19T08:44:07.792Z,100523.70
2019-03-19T08:46:38.290Z,100519.95
2019-03-19T08:49:08.893Z,100516.84
2019-03-19T08:51:39.333Z,100510.41
2019-03-19T08:54:11.169Z,100507.81
2019-03-19T08:56:44.577Z,100507.98
2019-03-19T08:59:17.443Z,100507.38
2019-03-19T09:01:48.031Z,100504.73
2019-03-19T09:04:18.632Z,100515.90
2019-03-19T09:06:49.161Z,100519.97
2019-03-19T09:09:21.390Z,100512.59
2019-03-19T09:11:53.472Z,100510.43
2019-03-19T09:14:28.561Z,100513.80
2019-03-19T09:17:02.949Z,100509.42
2019-03-19T09:19:34.361Z,100515.52
2019-03-19T09:22:06.487Z,100518.45
2019-03-19T09:24:45.310Z,100508.91
2019-03-19T09:27:16.012Z,100509.48
2019-03-19T09:29:48.303Z,100503.28
2019-03-19T09:32:20.335Z,100504.80
2019-03-19T09:34:52.214Z,100503.77
2019-03-19T09:37:22.868Z,100506.62
2019-03-19T09:39:53.297Z,100500.48
2019-03-19T09:42:23.983Z,100496.00
2019-03-19T09:44:58.479Z,100497.83
2019-03-19T09:47:26.891Z,100494.09
2019-03-19T09:49:58.836Z,100490.87
2019-03-19T09:52:32.425Z,100490.61
2019-03-19T09:55:05.856Z,100487.86
2019-03-19T09:57:36.396Z,100474.91
2019-03-19T10:00:18.500Z,100481.19
2019-03-19T10:02:49.961Z,100481.84
2019-03-19T10:05:22.160Z,100474.86
2019-03-19T10:07:52.787Z,100473.84
2019-03-19T10:10:27.145Z,100472.84
2019-03-19T10:12:59.393Z,100467.61
2019-03-19T10:15:30.691Z,100471.67
2019-03-19T10:21:02.291Z,100461.30
2019-03-19T10:23:34.162Z,100462.00
2019-03-19T10:26:06.839Z,100456.48
2019-03-19T10:28:42.676Z,100449.38
2019-03-19T10:31:19.274Z,100449.38
2019-03-19T10:33:47.103Z,100443.89
2019-03-19T10:36:26.730Z,100444.16
2019-03-19T10:38:57.363Z,100443.56
2019-03-19T10:41:29.896Z,100442.06
2019-03-19T10:44:01.792Z,100435.74
2019-03-19T10:46:33.292Z,100430.60
2019-03-19T10:49:04.166Z,100434.54
2019-03-19T10:51:35.269Z,100434.61
2019-03-19T10:54:08.935Z,100427.86
2019-03-19T10:56:40.193Z,100428.25
2019-03-19T10:59:12.139Z,100426.03
2019-03-19T11:01:45.376Z,100422.50
2019-03-19T11:04:16.691Z,100420.95
2019-03-19T11:06:48.760Z,100410.80
2019-03-19T11:09:19.467Z,100418.85
2019-03-19T11:11:50.324Z,100410.99
2019-03-19T11:14:24.788Z,100406.93
2019-03-19T11:16:56.959Z,100411.27
2019-03-19T11:19:29.189Z,100411.08
2019-03-19T11:22:01.567Z,100405.45
2019-03-19T11:24:32.287Z,100402.63
2019-03-19T11:27:14.166Z,100405.44
2019-03-19T11:29:46.149Z,100401.06
2019-03-19T11:32:18.219Z,100396.40
2019-03-19T11:34:51.743Z,100399.41
2019-03-19T11:37:26.818Z,100395.73
2019-03-19T11:39:59.061Z,100390.05
2019-03-19T11:42:31.493Z,100395.42
2019-03-19T11:45:02.198Z,100391.25
2019-03-19T11:47:32.825Z,100382.89
2019-03-19T11:50:11.343Z,100381.88
2019-03-19T11:52:43.545Z,100380.57
2019-03-19T11:55:15.125Z,100376.72
2019-03-19T11:57:46.314Z,100378.55
2019-03-19T12:00:21.275Z,100378.06
2019-03-19T12:03:10.867Z,100374.38
2019-03-19T12:05:35.506Z,100377.07
2019-03-19T12:08:08.352Z,100366.52
2019-03-19T12:10:38.979Z,100369.55
2019-03-19T12:13:14.710Z,100367.67
2019-03-19T12:15:45.359Z,100371.84
2019-03-19T12:18:16.184Z,100365.18
2019-03-19T12:20:51.044Z,100362.48
2019-03-19T12:23:36.185Z,100366.68
2019-03-19T12:29:23.122Z,100366.70
2019-03-19T12:32:05.487Z,100360.67
2019-03-19T12:38:05.830Z,100364.70
2019-03-19T12:40:37.602Z,100366.20
2019-03-19T12:43:08.211Z,100367.20
2019-03-19T12:45:38.712Z,100362.70
2019-03-19T12:48:09.223Z,100357.17
2019-03-19T12:53:33.370Z,100364.20
2019-03-19T12:56:03.822Z,100355.31
2019-03-19T12:58:34.242Z,100362.16
2019-03-19T13:01:04.894Z,100354.80
2019-03-19T13:03:37.329Z,100357.33
2019-03-19T13:06:07.957Z,100351.30
2019-03-19T13:08:41.514Z,100348.98
2019-03-19T13:11:12.150Z,100348.64
2019-03-19T13:13:42.780Z,100351.45
2019-03-19T13:16:14.962Z,100349.81
2019-03-19T13:18:45.709Z,100348.78
2019-03-19T13:21:24.036Z,100355.66
2019-03-19T13:23:59.396Z,100350.98
2019-03-19T13:26:29.967Z,100353.99
2019-03-19T13:29:00.521Z,100344.95
2019-03-19T13:31:33.919Z,100344.28
2019-03-19T13:34:04.448Z,100346.80
2019-03-19T13:36:34.962Z,100346.80
2019-03-19T13:39:07.278Z,100342.29
2019-03-19T13:41:37.805Z,100337.09
2019-03-19T13:44:08.323Z,100344.46
2019-03-19T13:46:41.889Z,100343.30
2019-03-19T13:49:15.360Z,100335.75
2019-03-19T13:52:04.053Z,100338.61
2019-03-19T13:54:34.769Z,100337.42
2019-03-19T13:57:05.215Z,100344.93
2019-03-19T13:59:36.223Z,100339.75
2019-03-19T14:02:06.913Z,100334.41
2019-03-19T14:04:38.946Z,100339.93
2019-03-19T14:07:19.712Z,100339.09
2019-03-19T14:15:27.949Z,100352.28
2019-03-19T14:18:01.595Z,100342.89
2019-03-19T14:20:33.455Z,100346.75
2019-03-19T14:23:04.856Z,100349.69
2019-03-19T14:25:35.448Z,100349.23
2019-03-19T14:28:05.951Z,100346.98
2019-03-19T14:30:36.378Z,100350.31
2019-03-19T14:33:16.571Z,100354.80
2019-03-19T14:35:47.064Z,100353.63
2019-03-19T14:38:35.387Z,100360.84
2019-03-19T14:41:13.515Z,100359.34
2019-03-19T14:43:49.404Z,100353.99
2019-03-19T14:46:20.160Z,100367.36
2019-03-19T14:48:50.889Z,100359.13
2019-03-19T14:51:22.666Z,100358.81
2019-03-19T14:53:53.205Z,100362.24
2019-03-19T14:56:24.096Z,100360.70
2019-03-19T14:58:57.243Z,100363.58
2019-03-19T15:01:27.961Z,100360.47
2019-03-19T15:07:22.498Z,100364.44
2019-03-19T15:09:54.132Z,100365.53
2019-03-19T15:12:25.649Z,100369.55
2019-03-19T15:14:58.065Z,100367.27
2019-03-19T15:17:28.662Z,100376.55
2019-03-19T15:20:05.935Z,100372.40
2019-03-19T15:26:13.500Z,100378.41
2019-03-19T15:29:02.162Z,100381.14
2019-03-19T15:31:32.545Z,100380.36
2019-03-19T15:34:12.706Z,100377.67
2019-03-19T15:36:43.625Z,100384.10
2019-03-19T15:39:14.372Z,100397.20
2019-03-19T15:41:44.974Z,100382.09
2019-03-19T15:44:19.739Z,100394.60
2019-03-19T15:46:51.915Z,100394.08
2019-03-19T15:49:38.462Z,100402.38
2019-03-19T15:52:02.552Z,100402.09
2019-03-19T15:54:33.011Z,100400.33
2019-03-19T15:57:03.454Z,100405.02
2019-03-19T15:59:35.910Z,100404.58
2019-03-19T16:02:07.950Z,100406.47
2019-03-19T16:04:44.143Z,100398.08
2019-03-19T16:07:14.710Z,100407.95
2019-03-19T16:09:46.752Z,100412.09
2019-03-19T16:12:17.318Z,100408.02
2019-03-19T16:14:57.294Z,100414.27
2019-03-19T16:17:30.264Z,100407.23
2019-03-19T16:20:00.884Z,100417.33
2019-03-19T16:22:37.079Z,100418.45
2019-03-19T16:25:10.129Z,100415.12
2019-03-19T16:27:40.615Z,100415.81
2019-03-19T16:33:08.236Z,100424.52
2019-03-19T16:38:43.676Z,100426.88
2019-03-19T16:41:14.287Z,100426.74
2019-03-19T16:44:01.395Z,100422.00
2019-03-19T16:49:28.577Z,100429.84
2019-03-19T16:49:58.028Z,100432.02
2019-03-19T16:52:57.146Z,100428.47
2019-03-19T16:58:43.639Z,100426.61
2019-03-19T17:04:12.493Z,100429.94
2019-03-19T17:06:46.311Z,100431.36
2019-03-19T17:09:19.805Z,100427.14
2019-03-19T17:12:10.470Z,100429.66
2019-03-19T17:14:53.106Z,100432.06
2019-03-19T17:17:23.081Z,100432.97
2019-03-19T17:19:58.612Z,100436.91
2019-03-19T17:23:04.300Z,100427.99
2019-03-19T17:25:36.188Z,100436.11
2019-03-19T17:28:22.092Z,100435.06
2019-03-19T17:30:55.637Z,100436.61
2019-03-19T17:33:37.888Z,100432.01
2019-03-19T17:36:24.399Z,100440.26
2019-03-19T17:38:57.324Z,100443.55
2019-03-19T17:41:28.028Z,100440.87
2019-03-19T17:46:49.854Z,100448.86
2019-03-19T17:49:20.610Z,100451.38
2019-03-19T17:51:51.137Z,100456.73
2019-03-19T17:54:23.038Z,100453.27
2019-03-19T17:56:59.477Z,100450.70
2019-03-19T17:59:46.819Z,100454.81
2019-03-19T18:02:25.201Z,100454.53
2019-03-19T18:05:01.659Z,100455.34
2019-03-19T18:07:34.129Z,100455.86
2019-03-19T18:10:13.672Z,100453.65
2019-03-19T18:12:44.490Z,100458.21
2019-03-19T18:15:16.476Z,100455.01
2019-03-19T18:17:51.402Z,100454.73
2019-03-19T18:20:26.459Z,100461.09
2019-03-19T18:23:06.258Z,100461.86
2019-03-19T18:25:39.031Z,100462.77
2019-03-19T18:28:18.243Z,100448.56
2019-03-19T18:30:51.081Z,100453.20
2019-03-19T18:33:29.296Z,100455.37
2019-03-19T18:35:59.868Z,100454.45
2019-03-19T18:38:31.999Z,100457.73
2019-03-19T18:41:02.518Z,100462.50
2019-03-19T18:43:40.915Z,100461.72
2019-03-19T18:46:11.435Z,100457.31
2019-03-19T18:48:42.092Z,100462.02
2019-03-19T18:51:12.685Z,100464.92
2019-03-19T18:53:43.284Z,100457.32
2019-03-19T18:56:13.776Z,100463.02
2019-03-19T18:58:52.629Z,100464.85
2019-03-19T19:01:24.087Z,100470.23
2019-03-19T19:03:54.587Z,100469.83
2019-03-19T19:06:25.216Z,100468.22
2019-03-19T19:08:59.592Z,100467.64
2019-03-19T19:11:32.718Z,100465.43
2019-03-19T19:14:03.358Z,100470.30
2019-03-19T19:16:33.799Z,100469.96
2019-03-19T19:19:04.517Z,100468.66
2019-03-19T19:21:35.143Z,100472.22
2019-03-19T19:24:08.856Z,100472.39
2019-03-19T19:26:39.384Z,100471.86
2019-03-19T19:29:09.978Z,100471.25
2019-03-19T19:31:42.491Z,100475.18
2019-03-19T19:34:12.683Z,100473.85
2019-03-19T19:36:45.163Z,100473.43
2019-03-19T19:39:17.470Z,100479.42
2019-03-19T19:41:47.971Z,100484.91
2019-03-19T19:44:18.523Z,100479.74
2019-03-19T19:46:49.037Z,100480.80
2019-03-19T19:49:21.528Z,100480.95
2019-03-19T19:52:00.530Z,100484.06
2019-03-19T19:54:31.106Z,100479.23
2019-03-19T19:57:01.636Z,100486.38
2019-03-19T19:59:33.141Z,100488.57
2019-03-19T20:02:03.622Z,100490.83
2019-03-19T20:04:42.189Z,100492.77
2019-03-19T20:07:14.234Z,100488.66
2019-03-19T20:09:44.674Z,100483.39
2019-03-19T20:12:15.174Z,100473.44
2019-03-19T20:14:45.634Z,100482.92
2019-03-19T20:17:16.034Z,100485.72
2019-03-19T20:19:46.446Z,100488.64
2019-03-19T20:22:17.040Z,100478.08
2019-03-19T20:24:47.408Z,100478.00
2019-03-19T20:27:17.900Z,100483.35
2019-03-19T20:29:48.368Z,100489.39
2019-03-19T20:32:18.827Z,100494.40
2019-03-19T20:34:49.249Z,100489.65
2019-03-19T20:37:19.706Z,100489.05
2019-03-19T20:39:50.281Z,100492.77
2019-03-19T20:42:20.720Z,100500.68
2019-03-19T20:44:51.157Z,100502.51
2019-03-19T20:47:21.556Z,100498.78
2019-03-19T20:49:52.142Z,100494.20
2019-03-19T20:52:22.671Z,100488.01
2019-03-19T20:54:53.103Z,100494.77
2019-03-19T20:57:26.784Z,100489.65
2019-03-19T20:59:57.210Z,100496.33
2019-03-19T21:02:27.621Z,100491.28
2019-03-19T21:04:58.139Z,100495.98
2019-03-19T21:07:28.586Z,100490.38
2019-03-19T21:09:59.065Z,100496.96
2019-03-19T21:12:29.832Z,100492.67
2019-03-19T21:15:00.449Z,100495.84
2019-03-19T21:17:30.944Z,100501.23
2019-03-19T21:20:01.461Z,100503.66
2019-03-19T21:22:31.957Z,100500.66
2019-03-19T21:25:02.424Z,100498.14
2019-03-19T21:27:32.895Z,100507.31
2019-03-19T21:30:03.567Z,100508.89
2019-03-19T21:32:34.062Z,100504.09
2019-03-19T21:35:05.839Z,100502.16
2019-03-19T21:37:36.603Z,100494.59
2019-03-19T21:40:14.358Z,100499.32
2019-03-19T21:42:44.958Z,100506.19
2019-03-19T21:45:23.154Z,100506.80
2019-03-19T21:47:53.604Z,100502.01
2019-03-19T21:50:24.739Z,100506.91
2019-03-19T21:52:55.134Z,100502.33
2019-03-19T21:55:25.559Z,100506.44
2019-03-19T21:57:55.952Z,100514.75
2019-03-19T22:00:29.059Z,100505.44
2019-03-19T22:02:59.469Z,100508.36
2019-03-19T22:05:29.944Z,100512.59
2019-03-19T22:08:00.361Z,100514.48
2019-03-19T22:10:30.849Z,100513.20
2019-03-19T22:13:01.290Z,100510.03
2019-03-19T22:15:31.700Z,100512.00
2019-03-19T22:18:03.639Z,100519.69
2019-03-19T22:20:34.116Z,100511.98
2019-03-19T22:23:05.538Z,100507.78
2019-03-19T22:25:35.941Z,100510.91
2019-03-19T22:28:06.343Z,100516.06
2019-03-19T22:30:37.334Z,100514.52
2019-03-19T22:33:07.767Z,100525.58
2019-03-19T22:35:38.158Z,100521.27
2019-03-19T22:38:08.998Z,100526.89
2019-03-19T22:40:39.467Z,100531.70
2019-03-19T22:43:09.916Z,100525.56
2019-03-19T22:45:40.350Z,100523.03
2019-03-19T22:48:10.710Z,100523.20
2019-03-19T22:50:41.198Z,100528.83
2019-03-19T22:53:11.706Z,100523.06
2019-03-19T22:55:42.147Z,100530.86
2019-03-19T22:58:12.551Z,100530.39
2019-03-19T23:00:44.770Z,100525.45
2019-03-19T23:03:15.341Z,100528.79
2019-03-19T23:05:45.843Z,100537.08
2019-03-19T23:08:16.291Z,100532.73
2019-03-19T23:10:47.250Z,100526.70
2019-03-19T23:13:19.192Z,100524.52
2019-03-19T23:15:49.635Z,100525.88
2019-03-19T23:18:20.116Z,100525.55
2019-03-19T23:20:50.559Z,100531.91
2019-03-19T23:23:20.993Z,100531.41
2019-03-19T23:25:51.417Z,100530.91
2019-03-19T23:28:24.231Z,100530.31
2019-03-19T23:30:56.186Z,100529.89
2019-03-19T23:33:26.582Z,100527.94
2019-03-19T23:35:57.063Z,100523.16
2019-03-19T23:38:28.283Z,100525.73
2019-03-19T23:40:58.758Z,100523.52
2019-03-19T23:43:29.160Z,100523.39
2019-03-19T23:45:59.553Z,100519.20
2019-03-19T23:48:32.202Z,100517.09
2019-03-19T23:51:02.643Z,100520.51
2019-03-19T23:53:33.071Z,100517.02
2019-03-19T23:56:03.498Z,100520.98
2019-03-19T23:58:33.948Z,100515.98
